VVCI

Details ICAO VVCI (HPH)
Name HAIPHONG CATBI
Region Vietnam
Timezone Asia/Ho_Chi_Minh (UTC+7.0)
Plans Departing 9
Arriving 17
Stats Elevation 6 ft / 2 m (AMSL)
Location 20.819386° 106.724990°
Runways 1
Magnetic Variation 1.554° W
Sunrise 2017-12-13 23:22:39 UTC / 2017-12-14 06:22:39 Local
Sunset 2017-12-14 10:15:27 UTC / 2017-12-14 17:15:27 Local
Advertisement - Login to hide

Runways

ID Width Length Bearing (true) Bearing (mag) Surface Threshold Offset Overrun Length
07 164 ft / 50 m 7,879 ft / 2,402 m 72.18° 73.73° Asphalt 0 ft / 0 m 0 ft / 0 m
25 164 ft / 50 m 7,879 ft / 2,402 m 252.19° 253.74° Asphalt 0 ft / 0 m 0 ft / 0 m

Map

Weather


0- 5 10 15 20 25 30 35+ Temperature / ° C

Clouds and Precipitation
Forecast for 2017-12-14 18:00 UTC. Updated 24 minutes ago

Ground ~20,000 ft ~40,000 ft Winds

METAR

VVCI 141530Z 03002KT 9999 SCT011 BKN013 17/15 Q1017 NOSIG

TAF

TAF AMD VVCI 141300Z 1413/1512 05005KT 7000 -DZ SCT007 BKN010 TEMPO 1413/1418 3200 -DZ BR SCT004 BKN010 TEMPO 1421/1501 1600 DZ BR SCT003 BKN020
Warning: Do not use this data for real-world aviation or navigation. No guarantee of current accuracy is given.